Boyarka, Ukraine
Current Conditions -  °F | °C
As of 10:30 PM on Wednesday 17 Dec 2014 (Local Time) from UKKK Reporting Station
Overcast Overcast  
Wind Chill: 29°   Ceiling: 600
Heat Index: 36°   Visibility: 5mi
Dew Point: 34°   Wind: 9mph
Humidity: 93%   Direction: 290°WNW
Pressure: 29.83"   Gusts: NA
Location:  50.32°N, 30.32°E
Report Text: UKKK 171930Z 29004MPS 8000 OVC006 02/01 Q1010 26290350 TEMPO OVC004
Loading
Personal Weather Stations






























Interactive Weather Map New forecast layout! Learn more

10-Day Weather Forecast

Advertisements
Track Severe Weather on mobile